createdAt,value
2023-01-13T00:00:38.979Z,1.40
2023-01-13T00:03:22.551Z,1.80
2023-01-13T00:05:51.966Z,1.50
2023-01-13T00:08:20.977Z,1.50
2023-01-13T00:10:50.049Z,1.90
2023-01-13T00:13:27.371Z,1.50
2023-01-13T00:15:57.794Z,1.30
2023-01-13T00:18:27.378Z,1.50
2023-01-13T00:21:07.367Z,1.90
2023-01-13T00:23:36.663Z,1.30
2023-01-13T00:26:09.525Z,1.80
2023-01-13T00:28:38.619Z,1.50
2023-01-13T00:31:15.869Z,1.80
2023-01-13T00:33:45.025Z,1.50
2023-01-13T00:36:15.227Z,1.80
2023-01-13T00:38:44.911Z,1.90
2023-01-13T00:41:16.415Z,1.60
2023-01-13T00:43:45.874Z,1.30
2023-01-13T00:46:21.887Z,1.80
2023-01-13T00:48:52.367Z,1.90
2023-01-13T00:51:22.540Z,1.40
2023-01-13T00:53:52.569Z,1.50
2023-01-13T00:56:40.798Z,1.70
2023-01-13T00:59:14.367Z,1.60
2023-01-13T01:01:43.765Z,1.70
2023-01-13T01:04:13.026Z,1.60
2023-01-13T01:06:42.143Z,1.80
2023-01-13T01:09:14.661Z,1.60
2023-01-13T01:11:44.049Z,1.70
2023-01-13T01:14:14.316Z,1.90
2023-01-13T01:16:43.233Z,1.80
2023-01-13T01:19:12.141Z,1.50
2023-01-13T01:21:42.450Z,1.60
2023-01-13T01:24:11.634Z,1.90
2023-01-13T01:26:42.452Z,1.70
2023-01-13T01:29:18.009Z,1.90
2023-01-13T01:31:47.315Z,1.70
2023-01-13T01:34:16.409Z,2.30
2023-01-13T01:36:45.409Z,1.50
2023-01-13T01:39:14.483Z,1.70
2023-01-13T01:42:03.679Z,1.80
2023-01-13T01:44:54.177Z,1.50
2023-01-13T01:47:24.184Z,2.00
2023-01-13T01:49:53.983Z,1.50
2023-01-13T01:52:35.803Z,1.40
2023-01-13T01:55:11.647Z,1.30
2023-01-13T01:57:45.388Z,1.70
2023-01-13T02:00:15.579Z,1.40
2023-01-13T02:02:47.450Z,1.70
2023-01-13T02:05:16.737Z,1.30
2023-01-13T02:07:48.137Z,1.40
2023-01-13T02:10:20.142Z,1.20
2023-01-13T02:12:49.532Z,1.40
2023-01-13T02:15:26.363Z,1.60
2023-01-13T02:18:10.258Z,1.30
2023-01-13T02:21:00.332Z,1.80
2023-01-13T02:24:07.353Z,1.60
2023-01-13T02:27:17.691Z,1.40
2023-01-13T02:30:10.522Z,1.80
2023-01-13T02:33:16.919Z,1.40
2023-01-13T02:35:52.375Z,1.50
2023-01-13T02:38:27.524Z,1.30
2023-01-13T02:41:35.093Z,1.40
2023-01-13T02:44:07.950Z,1.50
2023-01-13T02:46:51.008Z,1.00
2023-01-13T02:49:50.940Z,1.20
2023-01-13T02:52:45.753Z,1.20
2023-01-13T02:55:19.088Z,1.20
2023-01-13T02:57:49.409Z,1.20
2023-01-13T03:00:20.398Z,1.20
2023-01-13T03:02:49.990Z,1.30
2023-01-13T03:05:20.156Z,1.20
2023-01-13T03:08:18.986Z,1.20
2023-01-13T03:11:02.079Z,1.30
2023-01-13T03:13:43.179Z,1.20
2023-01-13T03:16:41.720Z,1.10
2023-01-13T03:19:29.993Z,1.00
2023-01-13T03:22:29.509Z,1.10
2023-01-13T03:25:16.743Z,1.30
2023-01-13T03:27:53.063Z,1.30
2023-01-13T03:30:41.608Z,1.10
2023-01-13T03:33:19.045Z,1.20
2023-01-13T03:35:52.454Z,1.30
2023-01-13T03:38:33.079Z,1.20
2023-01-13T03:41:17.246Z,1.10
2023-01-13T03:44:22.087Z,1.10
2023-01-13T03:47:04.579Z,1.10
2023-01-13T03:50:06.039Z,1.10
2023-01-13T03:53:03.806Z,1.20
2023-01-13T03:55:36.278Z,1.20
2023-01-13T03:58:14.862Z,1.40
2023-01-13T04:00:51.160Z,0.90
2023-01-13T04:03:32.567Z,1.10
2023-01-13T04:06:40.037Z,1.20
2023-01-13T04:09:15.343Z,1.10
2023-01-13T04:11:52.460Z,1.30
2023-01-13T04:14:22.190Z,0.90
2023-01-13T04:16:51.059Z,1.30
2023-01-13T04:19:20.065Z,1.10
2023-01-13T04:21:49.060Z,1.40
2023-01-13T04:24:18.647Z,1.60
2023-01-13T04:26:47.650Z,1.60
2023-01-13T04:29:16.828Z,1.40
2023-01-13T04:31:45.540Z,3.00
2023-01-13T04:34:14.856Z,1.60
2023-01-13T04:36:43.732Z,1.20
2023-01-13T04:39:12.701Z,1.40
2023-01-13T04:42:00.465Z,1.30
2023-01-13T04:44:31.757Z,1.40
2023-01-13T04:47:00.887Z,1.10
2023-01-13T04:49:29.763Z,1.10
2023-01-13T04:51:58.559Z,1.20
2023-01-13T04:54:27.861Z,1.10
2023-01-13T04:56:56.665Z,1.10
2023-01-13T04:59:25.760Z,0.90
2023-01-13T05:01:55.474Z,1.00
2023-01-13T05:04:24.229Z,0.90
2023-01-13T05:06:53.247Z,1.30
2023-01-13T05:09:22.529Z,1.30
2023-01-13T05:12:09.884Z,1.20
2023-01-13T05:14:57.999Z,1.30
2023-01-13T05:17:28.027Z,0.90
2023-01-13T05:19:56.927Z,1.10
2023-01-13T05:22:44.540Z,1.30
2023-01-13T05:25:22.643Z,1.10
2023-01-13T05:27:55.754Z,1.00
2023-01-13T05:30:33.126Z,0.90
2023-01-13T05:33:02.437Z,1.00
2023-01-13T05:35:31.335Z,1.10
2023-01-13T05:38:00.535Z,1.30
2023-01-13T05:40:48.146Z,1.10
2023-01-13T05:43:22.266Z,1.10
2023-01-13T05:45:58.619Z,1.00
2023-01-13T05:48:29.758Z,1.20
2023-01-13T05:50:58.740Z,0.90
2023-01-13T05:53:28.073Z,1.00
2023-01-13T05:55:57.146Z,1.20
2023-01-13T05:58:27.463Z,1.00
2023-01-13T06:01:04.494Z,1.20
2023-01-13T06:03:33.468Z,1.10
2023-01-13T06:06:04.652Z,1.20
2023-01-13T06:08:33.572Z,1.10
2023-01-13T06:11:02.359Z,1.20
2023-01-13T06:13:31.568Z,1.10
2023-01-13T06:16:00.807Z,1.20
2023-01-13T06:18:29.542Z,1.00
2023-01-13T06:20:58.747Z,1.00
2023-01-13T06:23:27.531Z,1.10
2023-01-13T06:26:01.359Z,1.00
2023-01-13T06:28:30.843Z,0.80
2023-01-13T06:31:02.517Z,0.80
2023-01-13T06:33:35.736Z,0.90
2023-01-13T06:36:11.520Z,0.80
2023-01-13T06:38:43.502Z,1.20
2023-01-13T06:41:12.911Z,0.90
2023-01-13T06:43:42.110Z,0.80
2023-01-13T06:46:10.910Z,1.30
2023-01-13T06:48:40.080Z,0.90
2023-01-13T06:51:08.889Z,0.80
2023-01-13T06:53:38.836Z,1.00
2023-01-13T06:56:08.077Z,1.20
2023-01-13T06:58:37.716Z,1.00
2023-01-13T07:01:06.922Z,1.00
2023-01-13T07:03:35.689Z,1.10
2023-01-13T07:06:04.788Z,1.10
2023-01-13T07:08:33.668Z,1.20
2023-01-13T07:11:03.365Z,1.30
2023-01-13T07:13:51.097Z,1.00
2023-01-13T07:16:20.281Z,1.00
2023-01-13T07:18:49.208Z,1.10
2023-01-13T07:21:20.441Z,0.90
2023-01-13T07:23:49.620Z,0.90
2023-01-13T07:26:18.317Z,1.50
2023-01-13T07:28:47.926Z,1.00
2023-01-13T07:31:19.442Z,1.20
2023-01-13T07:33:48.944Z,0.90
2023-01-13T07:36:17.913Z,1.10
2023-01-13T07:38:46.960Z,0.90
2023-01-13T07:41:35.305Z,1.00
2023-01-13T07:44:07.640Z,1.20
2023-01-13T07:46:36.971Z,1.10
2023-01-13T07:49:07.128Z,1.40
2023-01-13T07:51:39.974Z,1.30
2023-01-13T07:54:08.775Z,0.80
2023-01-13T07:56:37.881Z,1.40
2023-01-13T07:59:06.866Z,0.90
2023-01-13T08:01:37.166Z,1.20
2023-01-13T08:04:06.291Z,1.00
2023-01-13T08:06:37.101Z,1.40
2023-01-13T08:09:07.131Z,1.30
2023-01-13T08:11:36.231Z,0.90
2023-01-13T08:14:05.243Z,1.20
2023-01-13T08:16:35.789Z,1.00
2023-01-13T08:19:04.638Z,1.20
2023-01-13T08:21:34.985Z,1.30
2023-01-13T08:24:06.124Z,1.30
2023-01-13T08:26:37.103Z,1.10
2023-01-13T08:29:06.576Z,1.10
2023-01-13T08:31:35.548Z,1.00
2023-01-13T08:34:04.431Z,1.10
2023-01-13T08:36:33.610Z,1.20
2023-01-13T08:39:02.532Z,1.10
2023-01-13T08:41:50.471Z,1.10
2023-01-13T08:44:20.168Z,1.00
2023-01-13T08:46:49.763Z,1.30
2023-01-13T08:49:19.333Z,1.30
2023-01-13T08:51:49.661Z,1.30
2023-01-13T08:54:19.408Z,1.40
2023-01-13T08:56:48.852Z,1.40
2023-01-13T08:59:19.945Z,1.70
2023-01-13T09:01:49.148Z,1.40
2023-01-13T09:04:23.932Z,1.10
2023-01-13T09:06:53.084Z,1.40
2023-01-13T09:09:23.452Z,1.40
2023-01-13T09:12:10.881Z,1.20
2023-01-13T09:14:40.823Z,1.40
2023-01-13T09:17:10.071Z,1.50
2023-01-13T09:19:40.275Z,1.20
2023-01-13T09:22:12.095Z,1.00
2023-01-13T09:24:41.421Z,1.20
2023-01-13T09:27:14.925Z,1.50
2023-01-13T09:29:44.331Z,1.40
2023-01-13T09:32:14.339Z,1.40
2023-01-13T09:35:02.089Z,1.50
2023-01-13T09:37:39.588Z,1.40
2023-01-13T09:40:13.267Z,1.40
2023-01-13T09:43:40.848Z,1.60
2023-01-13T09:46:38.852Z,1.40
2023-01-13T09:49:21.110Z,0.80
2023-01-13T09:51:59.444Z,1.40
2023-01-13T09:54:52.581Z,1.60
2023-01-13T09:57:22.591Z,1.40
2023-01-13T09:59:51.491Z,1.70
2023-01-13T10:03:05.702Z,2.10
2023-01-13T10:05:38.151Z,2.20
2023-01-13T10:08:25.889Z,2.00
2023-01-13T10:11:25.243Z,1.30
2023-01-13T10:14:18.823Z,2.40
2023-01-13T10:17:08.707Z,2.20
2023-01-13T10:20:18.675Z,1.90
2023-01-13T10:23:02.526Z,1.90
2023-01-13T10:26:03.975Z,1.90
2023-01-13T10:28:32.945Z,1.60
2023-01-13T10:31:02.042Z,1.20
2023-01-13T10:33:31.767Z,1.50
2023-01-13T10:36:12.735Z,1.70
2023-01-13T10:38:47.194Z,1.50
2023-01-13T10:41:16.246Z,1.60
2023-01-13T10:44:09.348Z,1.30
2023-01-13T10:46:55.103Z,1.40
2023-01-13T10:49:28.777Z,1.50
2023-01-13T10:51:57.494Z,1.40
2023-01-13T10:54:27.295Z,1.50
2023-01-13T10:57:19.569Z,1.20
2023-01-13T10:59:49.115Z,1.10
2023-01-13T11:02:25.738Z,1.80
2023-01-13T11:04:55.438Z,2.00
2023-01-13T11:07:52.601Z,1.40
2023-01-13T11:10:31.543Z,1.50
2023-01-13T11:13:14.175Z,1.30
2023-01-13T11:16:08.587Z,1.60
2023-01-13T11:19:14.936Z,1.80
2023-01-13T11:22:06.771Z,1.50
2023-01-13T11:24:46.416Z,1.60
2023-01-13T11:27:23.619Z,1.70
2023-01-13T11:29:55.558Z,1.60
2023-01-13T11:32:25.570Z,2.10
2023-01-13T11:35:02.650Z,1.90
2023-01-13T11:37:34.400Z,1.40
2023-01-13T11:40:41.216Z,1.60
2023-01-13T11:43:45.000Z,1.40
2023-01-13T11:46:13.688Z,1.30
2023-01-13T11:48:43.416Z,1.60
2023-01-13T11:51:15.465Z,1.30
2023-01-13T11:53:47.316Z,1.30
2023-01-13T11:56:25.433Z,1.40
2023-01-13T11:59:08.557Z,1.30
2023-01-13T12:01:56.813Z,1.40
2023-01-13T12:04:26.242Z,1.60
2023-01-13T12:07:22.914Z,1.70
2023-01-13T12:10:02.576Z,1.50
2023-01-13T12:12:35.321Z,1.80
2023-01-13T12:15:23.216Z,1.40
2023-01-13T12:18:27.313Z,1.50
2023-01-13T12:21:25.281Z,1.20
2023-01-13T12:24:05.855Z,1.30
2023-01-13T12:26:38.799Z,1.50
2023-01-13T12:29:16.534Z,1.70
2023-01-13T12:31:49.013Z,1.60
2023-01-13T12:34:26.824Z,1.40
2023-01-13T12:37:03.506Z,1.80
2023-01-13T12:39:49.064Z,1.90
2023-01-13T12:43:01.795Z,1.60
2023-01-13T12:45:33.301Z,1.40
2023-01-13T12:48:02.435Z,1.30
2023-01-13T12:50:37.150Z,1.50
2023-01-13T12:53:31.952Z,1.30
2023-01-13T12:56:25.878Z,1.50
2023-01-13T12:59:17.352Z,1.30
2023-01-13T13:01:48.452Z,1.50
2023-01-13T13:04:42.364Z,1.30
2023-01-13T13:07:16.015Z,1.70
2023-01-13T13:09:51.919Z,1.90
2023-01-13T13:13:01.272Z,1.30
2023-01-13T13:15:34.481Z,1.60
2023-01-13T13:18:09.305Z,1.40
2023-01-13T13:20:56.810Z,2.30
2023-01-13T13:23:50.574Z,1.90
2023-01-13T13:26:24.195Z,1.50
2023-01-13T13:29:07.933Z,1.60
2023-01-13T13:31:45.719Z,1.50
2023-01-13T13:34:16.435Z,2.10
2023-01-13T13:36:59.680Z,1.60
2023-01-13T13:39:49.662Z,1.60
2023-01-13T13:42:36.369Z,1.70
2023-01-13T13:45:35.468Z,1.60
2023-01-13T13:48:27.625Z,2.20
2023-01-13T13:51:03.721Z,2.20
2023-01-13T13:53:39.615Z,2.00
2023-01-13T13:56:22.185Z,2.40
2023-01-13T13:58:52.773Z,1.70
2023-01-13T14:01:31.157Z,2.20
2023-01-13T14:04:26.321Z,1.90
2023-01-13T14:06:57.859Z,2.10
2023-01-13T14:09:29.048Z,2.00
2023-01-13T14:12:09.393Z,1.60
2023-01-13T14:14:44.249Z,2.10
2023-01-13T14:17:24.886Z,1.80
2023-01-13T14:19:56.335Z,1.90
2023-01-13T14:22:25.618Z,2.20
2023-01-13T14:24:58.616Z,2.20
2023-01-13T14:27:29.309Z,1.90
2023-01-13T14:30:00.808Z,2.20
2023-01-13T14:32:36.939Z,2.00
2023-01-13T14:35:07.233Z,2.30
2023-01-13T14:37:39.301Z,2.00
2023-01-13T14:40:36.791Z,2.30
2023-01-13T14:43:17.250Z,2.20
2023-01-13T14:46:01.425Z,2.10
2023-01-13T14:48:36.036Z,1.90
2023-01-13T14:51:10.003Z,2.30
2023-01-13T14:53:43.598Z,2.80
2023-01-13T14:56:41.480Z,2.80
2023-01-13T14:59:52.410Z,3.30
2023-01-13T15:02:31.366Z,4.90
2023-01-13T15:05:28.555Z,3.70
2023-01-13T15:08:11.972Z,3.10
2023-01-13T15:10:51.103Z,3.10
2023-01-13T15:13:51.964Z,3.50
2023-01-13T15:16:25.325Z,3.60
2023-01-13T15:18:55.770Z,2.80
2023-01-13T15:21:25.590Z,3.00
2023-01-13T15:23:54.416Z,3.80
2023-01-13T15:26:23.382Z,2.10
2023-01-13T15:28:53.422Z,2.70
2023-01-13T15:31:22.928Z,3.00
2023-01-13T15:33:52.591Z,4.60
2023-01-13T15:36:25.485Z,4.30
2023-01-13T15:38:54.578Z,3.30
2023-01-13T15:41:42.210Z,3.50
2023-01-13T15:44:32.519Z,3.40
2023-01-13T15:47:07.645Z,3.60
2023-01-13T15:49:45.835Z,3.50
2023-01-13T15:52:20.273Z,4.90
2023-01-13T15:54:50.079Z,5.30
2023-01-13T15:57:23.355Z,4.30
2023-01-13T15:59:53.924Z,3.70
2023-01-13T16:02:25.309Z,3.80
2023-01-13T16:04:55.573Z,3.60
2023-01-13T16:07:25.957Z,4.30
2023-01-13T16:09:55.713Z,5.50
2023-01-13T16:12:25.209Z,5.10
2023-01-13T16:14:54.099Z,4.70
2023-01-13T16:17:25.117Z,5.10
2023-01-13T16:19:53.944Z,4.50
2023-01-13T16:22:22.729Z,4.80
2023-01-13T16:24:51.536Z,4.60
2023-01-13T16:27:23.656Z,4.40
2023-01-13T16:29:56.219Z,5.20
2023-01-13T16:32:27.325Z,5.90
2023-01-13T16:34:56.981Z,7.00
2023-01-13T16:37:27.794Z,5.50
2023-01-13T16:39:56.460Z,6.10
2023-01-13T16:42:25.768Z,6.10
2023-01-13T16:44:57.129Z,6.80
2023-01-13T16:47:26.319Z,6.40
2023-01-13T16:49:55.167Z,6.20
2023-01-13T16:52:24.049Z,7.00
2023-01-13T16:54:52.996Z,6.40
2023-01-13T16:57:22.327Z,7.40
2023-01-13T16:59:51.820Z,8.00
2023-01-13T17:02:21.173Z,8.10
2023-01-13T17:04:53.186Z,8.50
2023-01-13T17:07:23.804Z,7.90
2023-01-13T17:09:53.847Z,9.70
2023-01-13T17:12:23.720Z,12.70
2023-01-13T17:14:53.752Z,12.70
2023-01-13T17:17:28.194Z,12.00
2023-01-13T17:19:57.628Z,8.70
2023-01-13T17:22:26.857Z,7.10
2023-01-13T17:24:56.275Z,10.20
2023-01-13T17:27:26.330Z,8.40
2023-01-13T17:29:56.112Z,7.80
2023-01-13T17:32:26.169Z,6.70
2023-01-13T17:34:55.541Z,7.50
2023-01-13T17:37:25.977Z,8.60
2023-01-13T17:39:56.483Z,7.30
2023-01-13T17:42:28.372Z,8.00
2023-01-13T17:44:57.245Z,7.40
2023-01-13T17:47:26.611Z,7.20
2023-01-13T17:49:55.660Z,8.40
2023-01-13T17:52:28.175Z,8.70
2023-01-13T17:54:58.397Z,10.00
2023-01-13T17:57:27.716Z,8.90
2023-01-13T17:59:58.740Z,8.00
2023-01-13T18:02:28.238Z,8.10
2023-01-13T18:04:58.884Z,6.90
2023-01-13T18:07:28.307Z,6.00
2023-01-13T18:10:04.958Z,5.40
2023-01-13T18:12:38.166Z,6.00
2023-01-13T18:15:09.650Z,6.40
2023-01-13T18:17:41.120Z,6.50
2023-01-13T18:20:36.779Z,6.60
2023-01-13T18:23:35.486Z,6.10
2023-01-13T18:26:34.763Z,7.00
2023-01-13T18:29:06.191Z,7.10
2023-01-13T18:31:39.311Z,6.50
2023-01-13T18:34:08.516Z,6.60
2023-01-13T18:36:38.622Z,6.60
2023-01-13T18:39:09.992Z,7.90
2023-01-13T18:41:57.826Z,7.10
2023-01-13T18:44:29.561Z,6.70
2023-01-13T18:46:59.214Z,7.30
2023-01-13T18:49:30.611Z,6.80
2023-01-13T18:51:59.627Z,6.30
2023-01-13T18:54:29.549Z,6.80
2023-01-13T18:56:59.641Z,8.40
2023-01-13T18:59:30.290Z,10.00
2023-01-13T19:02:02.642Z,11.30
2023-01-13T19:04:33.821Z,12.80
2023-01-13T19:07:03.712Z,11.90
2023-01-13T19:09:33.378Z,9.50
2023-01-13T19:12:06.401Z,8.80
2023-01-13T19:14:37.782Z,7.70
2023-01-13T19:17:11.162Z,7.80
2023-01-13T19:19:47.546Z,8.30
2023-01-13T19:22:31.026Z,7.50
2023-01-13T19:25:01.893Z,8.10
2023-01-13T19:27:31.899Z,7.50
2023-01-13T19:30:03.591Z,6.60
2023-01-13T19:32:34.699Z,6.30
2023-01-13T19:35:06.200Z,6.30
2023-01-13T19:37:39.173Z,6.10
2023-01-13T19:40:13.506Z,6.60
2023-01-13T19:43:06.108Z,5.00
2023-01-13T19:45:37.413Z,5.60
2023-01-13T19:48:09.603Z,6.30
2023-01-13T19:50:41.747Z,6.00
2023-01-13T19:53:18.345Z,5.20
2023-01-13T19:55:50.098Z,5.60
2023-01-13T19:58:22.159Z,5.40
2023-01-13T20:00:56.316Z,5.00
2023-01-13T20:03:31.399Z,5.60
2023-01-13T20:06:11.372Z,6.30
2023-01-13T20:08:42.177Z,5.10
2023-01-13T20:11:26.563Z,5.10
2023-01-13T20:14:00.869Z,3.70
2023-01-13T20:16:34.862Z,3.80
2023-01-13T20:19:06.961Z,3.30
2023-01-13T20:21:38.299Z,3.70
2023-01-13T20:24:12.098Z,3.20
2023-01-13T20:26:42.895Z,3.10
2023-01-13T20:29:16.151Z,3.10
2023-01-13T20:31:48.727Z,2.90
2023-01-13T20:34:19.845Z,2.70
2023-01-13T20:36:52.214Z,2.70
2023-01-13T20:39:30.788Z,2.60
2023-01-13T20:42:19.395Z,2.60
2023-01-13T20:44:55.154Z,2.00
2023-01-13T20:47:25.524Z,2.70
2023-01-13T20:49:55.840Z,2.70
2023-01-13T20:52:25.399Z,3.00
2023-01-13T20:54:56.201Z,2.60
2023-01-13T20:57:26.253Z,4.10
2023-01-13T20:59:56.174Z,5.40
2023-01-13T21:02:26.453Z,3.60
2023-01-13T21:04:56.195Z,3.50
2023-01-13T21:07:25.312Z,2.80
2023-01-13T21:09:54.352Z,2.80
2023-01-13T21:12:42.855Z,2.60
2023-01-13T21:15:18.796Z,2.40
2023-01-13T21:18:08.600Z,2.10
2023-01-13T21:20:39.654Z,2.30
2023-01-13T21:23:10.968Z,2.10
2023-01-13T21:25:41.728Z,1.80
2023-01-13T21:28:12.264Z,2.60
2023-01-13T21:30:41.229Z,2.20
2023-01-13T21:33:13.701Z,2.10
2023-01-13T21:35:43.142Z,2.10
2023-01-13T21:38:12.904Z,1.90
2023-01-13T21:40:44.145Z,2.20
2023-01-13T21:43:31.894Z,2.20
2023-01-13T21:46:20.031Z,1.80
2023-01-13T21:48:49.937Z,2.00
2023-01-13T21:51:19.748Z,1.90
2023-01-13T21:53:48.739Z,2.40
2023-01-13T21:56:17.593Z,1.60
2023-01-13T21:58:46.383Z,1.50
2023-01-13T22:01:17.155Z,1.90
2023-01-13T22:04:04.161Z,2.00
2023-01-13T22:06:33.465Z,1.90
2023-01-13T22:09:05.156Z,1.90
2023-01-13T22:11:35.059Z,1.90
2023-01-13T22:14:07.771Z,2.10
2023-01-13T22:16:50.068Z,1.80
2023-01-13T22:19:20.158Z,1.50
2023-01-13T22:21:49.359Z,2.40
2023-01-13T22:24:18.431Z,2.20
2023-01-13T22:26:47.352Z,2.20
2023-01-13T22:29:16.781Z,2.20
2023-01-13T22:31:45.758Z,2.30
2023-01-13T22:34:14.919Z,1.80
2023-01-13T22:36:44.249Z,1.90
2023-01-13T22:39:13.412Z,2.40
2023-01-13T22:41:42.613Z,2.20
2023-01-13T22:44:11.502Z,1.90
2023-01-13T22:46:40.592Z,2.10
2023-01-13T22:49:10.607Z,1.90
2023-01-13T22:51:39.531Z,1.80
2023-01-13T22:54:09.209Z,2.00
2023-01-13T22:56:39.751Z,4.00
2023-01-13T22:59:10.371Z,2.40
2023-01-13T23:01:39.702Z,2.20
2023-01-13T23:04:13.471Z,1.90
2023-01-13T23:06:43.403Z,1.60
2023-01-13T23:09:12.295Z,2.50
2023-01-13T23:11:41.816Z,2.20
2023-01-13T23:14:13.053Z,2.70
2023-01-13T23:16:41.922Z,1.90
2023-01-13T23:19:11.350Z,2.00
2023-01-13T23:21:40.027Z,1.90
2023-01-13T23:24:09.742Z,1.90
2023-01-13T23:26:38.633Z,2.00
2023-01-13T23:29:09.964Z,1.80
2023-01-13T23:31:38.758Z,1.40
2023-01-13T23:34:07.427Z,2.10
2023-01-13T23:36:41.261Z,2.00
2023-01-13T23:39:09.821Z,2.30
2023-01-13T23:41:38.719Z,2.00
2023-01-13T23:44:07.713Z,2.50
2023-01-13T23:46:36.391Z,2.00
2023-01-13T23:49:05.285Z,2.70
2023-01-13T23:51:34.177Z,2.50
2023-01-13T23:54:03.075Z,2.50
2023-01-13T23:56:32.470Z,2.30
2023-01-13T23:59:01.156Z,2.70
